sensor_id;sensor_type;location;lat;lon;timestamp;pressure;altitude;pressure_sealevel;temperature;humidity
6194;BME280;3130;41.564;23.280;2023-04-01T00:00:35;98150.75;;;12.18;76.47
6194;BME280;3130;41.564;23.280;2023-04-01T00:03:03;98179.22;;;12.26;77.38
6194;BME280;3130;41.564;23.280;2023-04-01T00:05:30;98177.34;;;12.28;77.48
6194;BME280;3130;41.564;23.280;2023-04-01T00:07:57;98169.59;;;12.39;77.24
6194;BME280;3130;41.564;23.280;2023-04-01T00:10:24;98130.88;;;12.20;76.83
6194;BME280;3130;41.564;23.280;2023-04-01T00:12:53;98126.13;;;12.05;77.64
6194;BME280;3130;41.564;23.280;2023-04-01T00:15:20;98157.16;;;12.24;77.82
6194;BME280;3130;41.564;23.280;2023-04-01T00:17:47;98161.69;;;12.31;77.19
6194;BME280;3130;41.564;23.280;2023-04-01T00:20:15;98166.78;;;12.42;76.72
6194;BME280;3130;41.564;23.280;2023-04-01T00:22:42;98158.88;;;12.34;77.53
6194;BME280;3130;41.564;23.280;2023-04-01T00:25:09;98159.72;;;12.24;78.13
6194;BME280;3130;41.564;23.280;2023-04-01T00:27:36;98152.94;;;12.23;78.07
6194;BME280;3130;41.564;23.280;2023-04-01T00:30:06;98027.56;;;11.31;77.98
6194;BME280;3130;41.564;23.280;2023-04-01T00:32:33;98160.31;;;12.16;77.60
6194;BME280;3130;41.564;23.280;2023-04-01T00:35:01;98169.63;;;12.28;77.07
6194;BME280;3130;41.564;23.280;2023-04-01T00:37:28;98160.34;;;11.95;77.20
6194;BME280;3130;41.564;23.280;2023-04-01T00:39:55;98160.22;;;11.96;78.41
6194;BME280;3130;41.564;23.280;2023-04-01T00:42:23;98152.50;;;11.96;78.13
6194;BME280;3130;41.564;23.280;2023-04-01T00:44:53;98110.63;;;11.74;77.74
6194;BME280;3130;41.564;23.280;2023-04-01T00:47:23;98157.75;;;12.05;77.94
6194;BME280;3130;41.564;23.280;2023-04-01T00:49:54;98133.50;;;11.99;77.97
6194;BME280;3130;41.564;23.280;2023-04-01T00:52:25;98143.75;;;12.09;77.91
6194;BME280;3130;41.564;23.280;2023-04-01T00:54:55;98150.31;;;12.03;78.71
6194;BME280;3130;41.564;23.280;2023-04-01T00:57:27;98143.66;;;11.89;79.66
6194;BME280;3130;41.564;23.280;2023-04-01T00:59:57;98138.41;;;11.80;80.63
6194;BME280;3130;41.564;23.280;2023-04-01T01:02:26;98140.28;;;11.78;80.55
6194;BME280;3130;41.564;23.280;2023-04-01T01:04:53;98074.00;;;11.28;80.06
6194;BME280;3130;41.564;23.280;2023-04-01T01:07:26;98141.94;;;11.79;79.29
6194;BME280;3130;41.564;23.280;2023-04-01T01:10:02;98141.25;;;11.66;80.09
6194;BME280;3130;41.564;23.280;2023-04-01T01:12:36;98115.97;;;11.38;80.92
6194;BME280;3130;41.564;23.280;2023-04-01T01:15:12;98127.78;;;11.51;81.23
6194;BME280;3130;41.564;23.280;2023-04-01T01:17:51;98130.00;;;11.45;81.24
6194;BME280;3130;41.564;23.280;2023-04-01T01:20:48;98119.03;;;11.54;80.90
6194;BME280;3130;41.564;23.280;2023-04-01T01:32:19;98111.44;;;11.41;81.89
6194;BME280;3130;41.564;23.280;2023-04-01T01:34:53;98112.38;;;11.40;82.80
6194;BME280;3130;41.564;23.280;2023-04-01T01:37:25;98108.06;;;11.41;83.01
6194;BME280;3130;41.564;23.280;2023-04-01T01:39:56;98105.25;;;11.44;82.45
6194;BME280;3130;41.564;23.280;2023-04-01T01:42:25;98109.09;;;11.49;82.09
6194;BME280;3130;41.564;23.280;2023-04-01T01:44:53;98112.47;;;11.39;82.18
6194;BME280;3130;41.564;23.280;2023-04-01T01:47:22;98100.72;;;11.36;82.26
6194;BME280;3130;41.564;23.280;2023-04-01T01:49:51;98095.94;;;11.32;82.89
6194;BME280;3130;41.564;23.280;2023-04-01T01:52:19;98095.94;;;11.32;83.02
6194;BME280;3130;41.564;23.280;2023-04-01T01:54:48;98105.25;;;11.22;83.69
6194;BME280;3130;41.564;23.280;2023-04-01T01:57:16;98094.28;;;11.20;83.48
6194;BME280;3130;41.564;23.280;2023-04-01T01:59:46;98100.69;;;11.14;83.49
6194;BME280;3130;41.564;23.280;2023-04-01T02:02:15;98092.63;;;11.08;83.82
6194;BME280;3130;41.564;23.280;2023-04-01T02:04:44;98096.72;;;11.10;83.78
6194;BME280;3130;41.564;23.280;2023-04-01T02:07:16;98100.56;;;11.16;83.98
6194;BME280;3130;41.564;23.280;2023-04-01T02:09:45;98089.25;;;11.18;83.99
6194;BME280;3130;41.564;23.280;2023-04-01T02:12:16;98083.44;;;11.27;83.54
6194;BME280;3130;41.564;23.280;2023-04-01T02:14:46;98035.25;;;11.09;82.78
6194;BME280;3130;41.564;23.280;2023-04-01T02:17:18;98055.31;;;11.26;82.56
6194;BME280;3130;41.564;23.280;2023-04-01T02:19:48;98077.38;;;11.39;81.57
6194;BME280;3130;41.564;23.280;2023-04-01T02:22:19;98071.91;;;11.33;81.27
6194;BME280;3130;41.564;23.280;2023-04-01T02:24:48;98046.47;;;11.08;81.75
6194;BME280;3130;41.564;23.280;2023-04-01T02:27:17;98061.63;;;11.11;81.81
6194;BME280;3130;41.564;23.280;2023-04-01T02:29:45;98054.72;;;11.01;82.00
6194;BME280;3130;41.564;23.280;2023-04-01T02:32:13;98032.44;;;10.90;82.08
6194;BME280;3130;41.564;23.280;2023-04-01T02:34:42;98029.66;;;10.93;81.79
6194;BME280;3130;41.564;23.280;2023-04-01T02:37:10;98048.09;;;11.09;82.02
6194;BME280;3130;41.564;23.280;2023-04-01T02:39:38;98018.25;;;10.97;81.84
6194;BME280;3130;41.564;23.280;2023-04-01T02:42:05;98045.63;;;11.07;82.86
6194;BME280;3130;41.564;23.280;2023-04-01T02:44:34;98047.88;;;11.12;82.62
6194;BME280;3130;41.564;23.280;2023-04-01T02:47:01;98051.22;;;11.12;81.39
6194;BME280;3130;41.564;23.280;2023-04-01T02:49:29;98027.91;;;10.94;82.10
6194;BME280;3130;41.564;23.280;2023-04-01T02:51:55;98047.13;;;10.77;83.43
6194;BME280;3130;41.564;23.280;2023-04-01T02:54:22;98042.72;;;10.79;83.26
6194;BME280;3130;41.564;23.280;2023-04-01T02:56:49;98045.84;;;10.94;82.56
6194;BME280;3130;41.564;23.280;2023-04-01T02:59:16;98041.56;;;11.05;81.90
6194;BME280;3130;41.564;23.280;2023-04-01T03:01:45;98047.97;;;11.10;81.66
6194;BME280;3130;41.564;23.280;2023-04-01T03:04:12;98050.75;;;11.07;81.92
6194;BME280;3130;41.564;23.280;2023-04-01T03:06:39;98053.44;;;11.06;82.51
6194;BME280;3130;41.564;23.280;2023-04-01T03:09:06;98039.47;;;11.10;82.65
6194;BME280;3130;41.564;23.280;2023-04-01T03:11:33;98041.31;;;11.08;81.94
6194;BME280;3130;41.564;23.280;2023-04-01T03:14:01;98047.38;;;11.18;81.60
6194;BME280;3130;41.564;23.280;2023-04-01T03:16:28;98052.41;;;11.19;81.49
6194;BME280;3130;41.564;23.280;2023-04-01T03:18:56;97965.63;;;10.59;81.66
6194;BME280;3130;41.564;23.280;2023-04-01T03:21:25;98032.53;;;10.78;82.56
6194;BME280;3130;41.564;23.280;2023-04-01T03:23:52;97998.03;;;10.60;83.15
6194;BME280;3130;41.564;23.280;2023-04-01T03:26:19;98037.09;;;10.85;83.15
6194;BME280;3130;41.564;23.280;2023-04-01T03:28:47;97935.78;;;10.36;81.70
6194;BME280;3130;41.564;23.280;2023-04-01T03:31:14;98025.69;;;11.00;81.54
6194;BME280;3130;41.564;23.280;2023-04-01T03:33:41;98023.25;;;11.09;81.08
6194;BME280;3130;41.564;23.280;2023-04-01T03:36:10;98028.50;;;11.19;79.72
6194;BME280;3130;41.564;23.280;2023-04-01T03:38:39;98032.69;;;11.31;79.40
6194;BME280;3130;41.564;23.280;2023-04-01T03:41:06;98023.59;;;11.27;79.68
6194;BME280;3130;41.564;23.280;2023-04-01T03:43:33;98015.31;;;11.34;79.41
6194;BME280;3130;41.564;23.280;2023-04-01T03:46:00;98026.28;;;11.58;79.05
6194;BME280;3130;41.564;23.280;2023-04-01T03:48:27;98018.81;;;11.55;78.92
6194;BME280;3130;41.564;23.280;2023-04-01T03:50:54;98017.97;;;11.66;78.81
6194;BME280;3130;41.564;23.280;2023-04-01T03:53:23;98021.38;;;11.55;79.61
6194;BME280;3130;41.564;23.280;2023-04-01T03:55:50;98012.03;;;11.54;80.14
6194;BME280;3130;41.564;23.280;2023-04-01T03:58:17;98005.63;;;11.60;80.12
6194;BME280;3130;41.564;23.280;2023-04-01T04:00:44;97997.81;;;11.39;80.68
6194;BME280;3130;41.564;23.280;2023-04-01T04:03:11;97993.94;;;11.34;82.11
6194;BME280;3130;41.564;23.280;2023-04-01T04:05:46;97975.22;;;11.22;82.35
6194;BME280;3130;41.564;23.280;2023-04-01T04:08:13;97997.53;;;11.42;81.70
6194;BME280;3130;41.564;23.280;2023-04-01T04:10:42;97978.81;;;11.31;82.40
6194;BME280;3130;41.564;23.280;2023-04-01T04:13:09;97987.44;;;11.30;83.21
6194;BME280;3130;41.564;23.280;2023-04-01T04:15:36;97990.09;;;11.28;83.73
6194;BME280;3130;41.564;23.280;2023-04-01T04:18:04;97995.84;;;11.32;83.64
6194;BME280;3130;41.564;23.280;2023-04-01T04:20:31;97990.53;;;11.44;83.17
6194;BME280;3130;41.564;23.280;2023-04-01T04:23:00;97964.91;;;11.33;83.24
6194;BME280;3130;41.564;23.280;2023-04-01T04:25:27;97988.09;;;11.43;83.20
6194;BME280;3130;41.564;23.280;2023-04-01T04:27:55;97987.66;;;11.49;83.27
6194;BME280;3130;41.564;23.280;2023-04-01T04:30:22;97977.28;;;11.39;83.73
6194;BME280;3130;41.564;23.280;2023-04-01T04:32:49;97960.16;;;11.29;83.31
6194;BME280;3130;41.564;23.280;2023-04-01T04:35:16;97974.59;;;11.30;84.25
6194;BME280;3130;41.564;23.280;2023-04-01T04:37:43;97974.25;;;11.34;83.64
6194;BME280;3130;41.564;23.280;2023-04-01T04:40:11;97972.47;;;11.46;82.82
6194;BME280;3130;41.564;23.280;2023-04-01T04:42:38;97961.25;;;11.58;82.80
6194;BME280;3130;41.564;23.280;2023-04-01T04:45:07;97927.31;;;11.43;82.42
6194;BME280;3130;41.564;23.280;2023-04-01T04:47:34;97972.41;;;11.79;81.59
6194;BME280;3130;41.564;23.280;2023-04-01T04:50:01;97978.44;;;11.89;81.04
6194;BME280;3130;41.564;23.280;2023-04-01T04:52:29;97977.22;;;11.72;81.47
6194;BME280;3130;41.564;23.280;2023-04-01T04:54:56;97985.94;;;11.81;81.28
6194;BME280;3130;41.564;23.280;2023-04-01T04:57:23;97945.72;;;11.70;80.91
6194;BME280;3130;41.564;23.280;2023-04-01T04:59:50;97981.00;;;11.89;80.28
6194;BME280;3130;41.564;23.280;2023-04-01T05:02:18;97979.63;;;11.85;81.17
6194;BME280;3130;41.564;23.280;2023-04-01T05:04:45;97983.09;;;11.95;80.77
6194;BME280;3130;41.564;23.280;2023-04-01T05:07:12;97969.06;;;11.99;80.87
6194;BME280;3130;41.564;23.280;2023-04-01T05:09:40;97977.53;;;12.10;80.25
6194;BME280;3130;41.564;23.280;2023-04-01T05:12:07;97979.34;;;12.19;79.90
6194;BME280;3130;41.564;23.280;2023-04-01T05:14:34;97917.72;;;11.88;79.88
6194;BME280;3130;41.564;23.280;2023-04-01T05:17:01;97931.72;;;12.15;79.97
6194;BME280;3130;41.564;23.280;2023-04-01T05:19:30;97964.50;;;12.43;79.31
6194;BME280;3130;41.564;23.280;2023-04-01T05:21:57;97950.13;;;12.40;79.37
6194;BME280;3130;41.564;23.280;2023-04-01T05:24:24;97962.50;;;12.46;78.46
6194;BME280;3130;41.564;23.280;2023-04-01T05:26:51;97964.38;;;12.44;78.16
6194;BME280;3130;41.564;23.280;2023-04-01T05:29:18;97959.63;;;12.40;78.06
6194;BME280;3130;41.564;23.280;2023-04-01T05:31:46;97959.28;;;12.54;77.75
6194;BME280;3130;41.564;23.280;2023-04-01T05:34:13;97960.03;;;12.65;77.04
6194;BME280;3130;41.564;23.280;2023-04-01T05:36:41;97940.94;;;12.68;76.45
6194;BME280;3130;41.564;23.280;2023-04-01T05:39:09;97951.94;;;12.90;75.76
6194;BME280;3130;41.564;23.280;2023-04-01T05:41:36;97949.41;;;13.00;75.67
6194;BME280;3130;41.564;23.280;2023-04-01T05:44:04;97929.34;;;13.03;75.52
6194;BME280;3130;41.564;23.280;2023-04-01T05:46:31;97944.31;;;13.28;74.52
6194;BME280;3130;41.564;23.280;2023-04-01T05:48:58;97950.06;;;13.41;74.32
6194;BME280;3130;41.564;23.280;2023-04-01T05:51:25;97945.88;;;13.49;73.65
6194;BME280;3130;41.564;23.280;2023-04-01T05:53:54;97930.53;;;13.48;73.39
6194;BME280;3130;41.564;23.280;2023-04-01T05:56:20;97904.91;;;13.27;72.94
6194;BME280;3130;41.564;23.280;2023-04-01T05:58:51;97890.84;;;13.41;73.55
6194;BME280;3130;41.564;23.280;2023-04-01T06:01:18;97903.72;;;13.60;73.43
6194;BME280;3130;41.564;23.280;2023-04-01T06:03:45;97859.09;;;13.50;73.46
6194;BME280;3130;41.564;23.280;2023-04-01T06:06:14;97855.84;;;13.67;72.71
6194;BME280;3130;41.564;23.280;2023-04-01T06:08:42;97846.22;;;13.78;74.01
6194;BME280;3130;41.564;23.280;2023-04-01T06:11:19;97876.28;;;14.15;73.59
6194;BME280;3130;41.564;23.280;2023-04-01T06:14:07;97883.03;;;14.35;73.08
6194;BME280;3130;41.564;23.280;2023-04-01T06:16:49;97869.19;;;14.36;72.75
6194;BME280;3130;41.564;23.280;2023-04-01T06:19:26;97884.88;;;14.52;72.44
6194;BME280;3130;41.564;23.280;2023-04-01T06:22:28;97884.44;;;14.66;71.67
6194;BME280;3130;41.564;23.280;2023-04-01T06:25:21;97892.38;;;14.82;71.37
6194;BME280;3130;41.564;23.280;2023-04-01T06:28:02;97901.09;;;14.81;71.00
6194;BME280;3130;41.564;23.280;2023-04-01T06:30:41;97903.41;;;14.75;71.88
6194;BME280;3130;41.564;23.280;2023-04-01T06:33:22;97889.69;;;14.74;71.82
6194;BME280;3130;41.564;23.280;2023-04-01T06:36:18;97875.03;;;15.02;71.41
6194;BME280;3130;41.564;23.280;2023-04-01T06:39:11;97858.06;;;15.16;70.74
6194;BME280;3130;41.564;23.280;2023-04-01T06:42:12;97845.34;;;15.32;70.46
6194;BME280;3130;41.564;23.280;2023-04-01T06:44:51;97855.50;;;15.43;69.93
6194;BME280;3130;41.564;23.280;2023-04-01T06:47:32;97852.31;;;15.67;69.51
6194;BME280;3130;41.564;23.280;2023-04-01T06:50:07;97853.00;;;15.94;67.92
6194;BME280;3130;41.564;23.280;2023-04-01T06:52:48;97854.16;;;16.00;66.73
6194;BME280;3130;41.564;23.280;2023-04-01T06:55:26;97840.53;;;15.90;66.76
6194;BME280;3130;41.564;23.280;2023-04-01T06:57:57;97807.31;;;15.77;67.42
6194;BME280;3130;41.564;23.280;2023-04-01T07:00:31;97852.16;;;16.11;66.86
6194;BME280;3130;41.564;23.280;2023-04-01T07:03:10;97843.88;;;16.08;66.69
6194;BME280;3130;41.564;23.280;2023-04-01T07:05:42;97823.50;;;15.79;66.75
6194;BME280;3130;41.564;23.280;2023-04-01T07:08:12;97849.97;;;15.99;66.18
6194;BME280;3130;41.564;23.280;2023-04-01T07:10:45;97840.84;;;15.87;66.87
6194;BME280;3130;41.564;23.280;2023-04-01T07:13:17;97854.22;;;15.65;67.41
6194;BME280;3130;41.564;23.280;2023-04-01T07:15:55;97849.03;;;15.47;67.98
6194;BME280;3130;41.564;23.280;2023-04-01T07:18:30;97841.69;;;15.35;68.63
6194;BME280;3130;41.564;23.280;2023-04-01T07:21:00;97855.28;;;15.37;68.56
6194;BME280;3130;41.564;23.280;2023-04-01T07:23:32;97856.22;;;15.36;69.22
6194;BME280;3130;41.564;23.280;2023-04-01T07:26:09;97841.19;;;15.22;69.80
6194;BME280;3130;41.564;23.280;2023-04-01T07:28:39;97844.09;;;15.19;70.90
6194;BME280;3130;41.564;23.280;2023-04-01T07:31:16;97820.00;;;15.18;70.17
6194;BME280;3130;41.564;23.280;2023-04-01T07:33:52;97830.44;;;15.44;69.65
6194;BME280;3130;41.564;23.280;2023-04-01T07:36:33;97831.63;;;15.67;69.03
6194;BME280;3130;41.564;23.280;2023-04-01T07:39:14;97811.75;;;15.67;67.66
6194;BME280;3130;41.564;23.280;2023-04-01T07:41:51;97833.31;;;16.01;66.38
6194;BME280;3130;41.564;23.280;2023-04-01T07:44:25;97843.06;;;16.07;65.81
6194;BME280;3130;41.564;23.280;2023-04-01T07:47:08;97840.13;;;16.02;66.58
6194;BME280;3130;41.564;23.280;2023-04-01T07:49:46;97836.72;;;16.02;67.25
6194;BME280;3130;41.564;23.280;2023-04-01T07:52:21;97809.44;;;15.82;67.60
6194;BME280;3130;41.564;23.280;2023-04-01T07:54:57;97813.84;;;15.89;67.75
6194;BME280;3130;41.564;23.280;2023-04-01T07:57:32;97797.38;;;15.90;67.85
6194;BME280;3130;41.564;23.280;2023-04-01T08:00:07;97802.66;;;16.06;67.35
6194;BME280;3130;41.564;23.280;2023-04-01T08:02:48;97802.38;;;16.17;67.35
6194;BME280;3130;41.564;23.280;2023-04-01T08:05:25;97777.75;;;16.05;67.52
6194;BME280;3130;41.564;23.280;2023-04-01T08:08:01;97792.88;;;16.25;67.33
6194;BME280;3130;41.564;23.280;2023-04-01T08:10:36;97789.03;;;16.29;67.31
6194;BME280;3130;41.564;23.280;2023-04-01T08:13:10;97790.56;;;16.32;66.27
6194;BME280;3130;41.564;23.280;2023-04-01T08:15:45;97793.56;;;16.27;66.77
6194;BME280;3130;41.564;23.280;2023-04-01T08:18:29;97797.34;;;16.33;66.78
6194;BME280;3130;41.564;23.280;2023-04-01T08:21:01;97786.53;;;16.37;66.46
6194;BME280;3130;41.564;23.280;2023-04-01T08:23:31;97775.13;;;16.22;66.48
6194;BME280;3130;41.564;23.280;2023-04-01T08:26:02;97765.56;;;16.23;66.62
6194;BME280;3130;41.564;23.280;2023-04-01T08:28:36;97758.22;;;16.36;66.14
6194;BME280;3130;41.564;23.280;2023-04-01T08:31:09;97752.25;;;16.43;66.05
6194;BME280;3130;41.564;23.280;2023-04-01T08:33:40;97741.28;;;16.49;65.89
6194;BME280;3130;41.564;23.280;2023-04-01T08:36:12;97750.59;;;16.68;65.34
6194;BME280;3130;41.564;23.280;2023-04-01T08:38:44;97739.06;;;16.62;65.57
6194;BME280;3130;41.564;23.280;2023-04-01T08:41:33;97738.91;;;16.64;65.21
6194;BME280;3130;41.564;23.280;2023-04-01T08:44:20;97734.22;;;16.67;64.81
6194;BME280;3130;41.564;23.280;2023-04-01T08:47:24;97745.59;;;16.74;64.62
6194;BME280;3130;41.564;23.280;2023-04-01T08:50:23;97735.22;;;16.74;63.96
6194;BME280;3130;41.564;23.280;2023-04-01T08:53:00;97728.28;;;16.91;63.95
6194;BME280;3130;41.564;23.280;2023-04-01T08:55:44;97729.41;;;16.96;64.04
6194;BME280;3130;41.564;23.280;2023-04-01T09:01:31;97718.59;;;17.17;63.27
6194;BME280;3130;41.564;23.280;2023-04-01T09:04:19;97722.16;;;17.63;61.79
6194;BME280;3130;41.564;23.280;2023-04-01T09:06:59;97712.44;;;17.65;60.57
6194;BME280;3130;41.564;23.280;2023-04-01T09:12:59;97685.72;;;18.19;58.57
6194;BME280;3130;41.564;23.280;2023-04-01T09:15:42;97678.75;;;18.50;57.90
6194;BME280;3130;41.564;23.280;2023-04-01T09:18:39;97672.34;;;18.68;55.95
6194;BME280;3130;41.564;23.280;2023-04-01T09:21:35;97673.63;;;18.95;54.96
6194;BME280;3130;41.564;23.280;2023-04-01T09:24:26;97674.91;;;19.21;52.88
6194;BME280;3130;41.564;23.280;2023-04-01T09:27:05;97649.66;;;19.29;49.01
6194;BME280;3130;41.564;23.280;2023-04-01T09:35:48;97668.69;;;19.44;46.05
6194;BME280;3130;41.564;23.280;2023-04-01T09:38:21;97669.81;;;19.27;45.92
6194;BME280;3130;41.564;23.280;2023-04-01T09:40:56;97669.09;;;19.33;46.18
6194;BME280;3130;41.564;23.280;2023-04-01T09:43:29;97646.88;;;19.09;45.92
6194;BME280;3130;41.564;23.280;2023-04-01T09:46:11;97665.56;;;18.82;47.11
6194;BME280;3130;41.564;23.280;2023-04-01T09:52:14;97641.91;;;18.54;47.83
6194;BME280;3130;41.564;23.280;2023-04-01T09:54:59;97640.47;;;18.74;47.83
6194;BME280;3130;41.564;23.280;2023-04-01T09:58:24;97648.00;;;18.69;47.42
6194;BME280;3130;41.564;23.280;2023-04-01T10:10:53;97630.38;;;18.57;51.58
6194;BME280;3130;41.564;23.280;2023-04-01T10:19:49;97632.44;;;18.84;52.77
6194;BME280;3130;41.564;23.280;2023-04-01T10:22:58;97628.06;;;18.84;52.30
6194;BME280;3130;41.564;23.280;2023-04-01T10:28:58;97632.41;;;18.92;53.51
6194;BME280;3130;41.564;23.280;2023-04-01T10:32:05;97625.34;;;19.00;53.07
6194;BME280;3130;41.564;23.280;2023-04-01T10:38:06;97611.47;;;19.08;51.29
6194;BME280;3130;41.564;23.280;2023-04-01T10:40:57;97609.56;;;19.02;52.17
6194;BME280;3130;41.564;23.280;2023-04-01T10:47:09;97611.28;;;19.09;52.09
6194;BME280;3130;41.564;23.280;2023-04-01T10:53:19;97584.22;;;19.04;51.15
6194;BME280;3130;41.564;23.280;2023-04-01T10:56:15;97589.03;;;19.15;51.28
6194;BME280;3130;41.564;23.280;2023-04-01T10:59:19;97598.41;;;19.16;51.19
6194;BME280;3130;41.564;23.280;2023-04-01T11:08:08;97573.09;;;19.32;49.97
6194;BME280;3130;41.564;23.280;2023-04-01T11:11:31;97566.19;;;19.39;48.67
6194;BME280;3130;41.564;23.280;2023-04-01T11:14:23;97559.72;;;19.35;48.08
6194;BME280;3130;41.564;23.280;2023-04-01T11:23:22;97533.47;;;19.30;47.26
6194;BME280;3130;41.564;23.280;2023-04-01T11:26:07;97521.19;;;19.38;47.27
6194;BME280;3130;41.564;23.280;2023-04-01T11:28:47;97516.06;;;19.59;46.26
6194;BME280;3130;41.564;23.280;2023-04-01T11:31:32;97515.00;;;19.89;45.22
6194;BME280;3130;41.564;23.280;2023-04-01T11:34:13;97510.78;;;20.03;43.69
6194;BME280;3130;41.564;23.280;2023-04-01T11:36:53;97493.19;;;20.26;43.52
6194;BME280;3130;41.564;23.280;2023-04-01T11:39:32;97508.06;;;20.52;41.61
6194;BME280;3130;41.564;23.280;2023-04-01T11:42:14;97499.66;;;20.57;42.08
6194;BME280;3130;41.564;23.280;2023-04-01T11:44:51;97479.50;;;20.65;42.21
6194;BME280;3130;41.564;23.280;2023-04-01T11:47:44;97485.56;;;20.72;42.42
6194;BME280;3130;41.564;23.280;2023-04-01T11:50:24;97472.44;;;20.80;43.02
6194;BME280;3130;41.564;23.280;2023-04-01T11:53:22;97457.94;;;20.78;43.25
6194;BME280;3130;41.564;23.280;2023-04-01T11:56:00;97441.66;;;20.69;43.33
6194;BME280;3130;41.564;23.280;2023-04-01T11:58:51;97460.94;;;21.02;43.45
6194;BME280;3130;41.564;23.280;2023-04-01T12:01:34;97452.41;;;21.21;43.64
6194;BME280;3130;41.564;23.280;2023-04-01T12:07:13;97451.19;;;21.17;44.17
6194;BME280;3130;41.564;23.280;2023-04-01T12:09:49;97443.13;;;21.06;44.89
6194;BME280;3130;41.564;23.280;2023-04-01T12:12:27;97442.00;;;20.87;44.68
6194;BME280;3130;41.564;23.280;2023-04-01T12:15:05;97423.38;;;20.63;45.62
6194;BME280;3130;41.564;23.280;2023-04-01T12:17:45;97465.25;;;20.61;47.51
6194;BME280;3130;41.564;23.280;2023-04-01T12:20:36;97459.25;;;20.40;47.64
6194;BME280;3130;41.564;23.280;2023-04-01T12:23:18;97451.75;;;20.30;47.31
6194;BME280;3130;41.564;23.280;2023-04-01T12:26:04;97452.09;;;20.21;47.18
6194;BME280;3130;41.564;23.280;2023-04-01T12:28:43;97463.38;;;20.07;47.52
6194;BME280;3130;41.564;23.280;2023-04-01T12:31:24;97477.84;;;19.95;50.00
6194;BME280;3130;41.564;23.280;2023-04-01T12:34:12;97477.38;;;19.71;53.83
6194;BME280;3130;41.564;23.280;2023-04-01T12:36:53;97488.72;;;19.49;57.25
6194;BME280;3130;41.564;23.280;2023-04-01T12:39:43;97503.13;;;19.08;62.24
6194;BME280;3130;41.564;23.280;2023-04-01T12:42:20;97547.97;;;19.25;63.87
6194;BME280;3130;41.564;23.280;2023-04-01T12:45:02;97505.50;;;18.81;71.34
6194;BME280;3130;41.564;23.280;2023-04-01T12:48:05;97552.84;;;18.91;72.28
6194;BME280;3130;41.564;23.280;2023-04-01T12:50:45;97578.63;;;18.92;70.48
6194;BME280;3130;41.564;23.280;2023-04-01T12:53:40;97597.78;;;18.77;67.94
6194;BME280;3130;41.564;23.280;2023-04-01T12:56:18;97610.34;;;18.65;70.02
6194;BME280;3130;41.564;23.280;2023-04-01T12:59:21;97615.97;;;18.24;75.20
6194;BME280;3130;41.564;23.280;2023-04-01T13:02:01;97606.41;;;18.24;74.70
6194;BME280;3130;41.564;23.280;2023-04-01T13:04:48;97596.63;;;17.96;76.15
6194;BME280;3130;41.564;23.280;2023-04-01T13:07:50;97628.06;;;17.93;77.75
6194;BME280;3130;41.564;23.280;2023-04-01T13:10:35;97590.50;;;17.43;80.51
6194;BME280;3130;41.564;23.280;2023-04-01T13:13:21;97628.09;;;17.31;83.01
6194;BME280;3130;41.564;23.280;2023-04-01T13:15:58;97606.97;;;16.30;87.00
6194;BME280;3130;41.564;23.280;2023-04-01T13:18:37;97604.25;;;15.83;92.13
6194;BME280;3130;41.564;23.280;2023-04-01T13:21:12;97605.47;;;15.63;96.39
6194;BME280;3130;41.564;23.280;2023-04-01T13:23:52;97586.28;;;15.40;97.97
6194;BME280;3130;41.564;23.280;2023-04-01T13:26:28;97595.75;;;15.31;99.65
6194;BME280;3130;41.564;23.280;2023-04-01T13:29:00;97597.56;;;15.13;100.00
6194;BME280;3130;41.564;23.280;2023-04-01T13:31:50;97562.72;;;14.92;100.00
6194;BME280;3130;41.564;23.280;2023-04-01T13:34:33;97611.97;;;14.99;100.00
6194;BME280;3130;41.564;23.280;2023-04-01T13:37:15;97619.34;;;14.94;100.00
6194;BME280;3130;41.564;23.280;2023-04-01T13:39:57;97600.94;;;14.89;100.00
6194;BME280;3130;41.564;23.280;2023-04-01T13:42:33;97625.47;;;15.10;100.00
6194;BME280;3130;41.564;23.280;2023-04-01T13:45:12;97632.31;;;15.19;100.00
6194;BME280;3130;41.564;23.280;2023-04-01T13:48:25;97623.28;;;14.98;100.00
6194;BME280;3130;41.564;23.280;2023-04-01T13:51:06;97611.13;;;14.90;100.00
6194;BME280;3130;41.564;23.280;2023-04-01T13:53:59;97592.59;;;14.95;100.00
6194;BME280;3130;41.564;23.280;2023-04-01T13:56:34;97571.88;;;14.61;100.00
6194;BME280;3130;41.564;23.280;2023-04-01T13:59:31;97578.19;;;14.84;100.00
6194;BME280;3130;41.564;23.280;2023-04-01T14:02:19;97556.34;;;15.04;100.00
6194;BME280;3130;41.564;23.280;2023-04-01T14:07:58;97550.88;;;15.66;100.00
6194;BME280;3130;41.564;23.280;2023-04-01T14:10:31;97541.28;;;16.08;100.00
6194;BME280;3130;41.564;23.280;2023-04-01T14:13:06;97532.81;;;16.47;100.00
6194;BME280;3130;41.564;23.280;2023-04-01T14:15:51;97524.84;;;16.80;95.95
6194;BME280;3130;41.564;23.280;2023-04-01T14:18:33;97538.06;;;17.25;92.38
6194;BME280;3130;41.564;23.280;2023-04-01T14:21:23;97528.78;;;17.46;87.24
6194;BME280;3130;41.564;23.280;2023-04-01T14:24:14;97538.00;;;17.87;83.27
6194;BME280;3130;41.564;23.280;2023-04-01T14:27:09;97547.22;;;18.12;79.05
6194;BME280;3130;41.564;23.280;2023-04-01T14:29:51;97547.75;;;18.38;76.93
6194;BME280;3130;41.564;23.280;2023-04-01T14:32:32;97561.06;;;18.80;74.09
6194;BME280;3130;41.564;23.280;2023-04-01T14:35:32;97562.28;;;19.06;70.24
6194;BME280;3130;41.564;23.280;2023-04-01T14:38:30;97550.28;;;19.05;69.67
6194;BME280;3130;41.564;23.280;2023-04-01T14:41:17;97545.53;;;18.72;68.15
6194;BME280;3130;41.564;23.280;2023-04-01T14:44:15;97538.28;;;18.67;69.99
6194;BME280;3130;41.564;23.280;2023-04-01T14:47:04;97537.13;;;18.47;71.81
6194;BME280;3130;41.564;23.280;2023-04-01T14:49:37;97542.50;;;18.46;73.92
6194;BME280;3130;41.564;23.280;2023-04-01T14:52:11;97555.34;;;18.39;75.26
6194;BME280;3130;41.564;23.280;2023-04-01T14:54:44;97541.81;;;18.29;79.44
6194;BME280;3130;41.564;23.280;2023-04-01T14:57:14;97513.28;;;17.99;82.51
6194;BME280;3130;41.564;23.280;2023-04-01T14:59:48;97532.59;;;17.97;84.22
6194;BME280;3130;41.564;23.280;2023-04-01T15:02:31;97524.69;;;17.60;85.81
6194;BME280;3130;41.564;23.280;2023-04-01T15:05:10;97518.28;;;17.40;88.25
6194;BME280;3130;41.564;23.280;2023-04-01T15:08:10;97513.81;;;17.10;89.63
6194;BME280;3130;41.564;23.280;2023-04-01T15:11:05;97524.53;;;16.91;91.02